sensor_id;sensor_type;location;lat;lon;timestamp;pressure;altitude;pressure_sealevel;temperature;humidity
9474;BME280;8865;47.636;7.692;2023-06-14T00:00:36;97630.22;;;15.30;nan
9474;BME280;8865;47.636;7.692;2023-06-14T00:03:05;97636.84;;;15.26;nan
9474;BME280;8865;47.636;7.692;2023-06-14T00:05:31;97636.56;;;15.21;nan
9474;BME280;8865;47.636;7.692;2023-06-14T00:07:59;97639.47;;;15.11;nan
9474;BME280;8865;47.636;7.692;2023-06-14T00:10:26;97639.69;;;15.02;nan
9474;BME280;8865;47.636;7.692;2023-06-14T00:12:56;97647.50;;;14.95;nan
9474;BME280;8865;47.636;7.692;2023-06-14T00:15:22;97636.75;;;14.96;nan
9474;BME280;8865;47.636;7.692;2023-06-14T00:17:49;97644.75;;;14.88;nan
9474;BME280;8865;47.636;7.692;2023-06-14T00:20:15;97638.78;;;14.86;nan
9474;BME280;8865;47.636;7.692;2023-06-14T00:22:41;97637.88;;;14.79;nan
9474;BME280;8865;47.636;7.692;2023-06-14T00:25:08;97644.16;;;14.70;nan
9474;BME280;8865;47.636;7.692;2023-06-14T00:27:34;97644.03;;;14.63;nan
9474;BME280;8865;47.636;7.692;2023-06-14T00:30:00;97642.25;;;14.55;nan
9474;BME280;8865;47.636;7.692;2023-06-14T00:32:26;97649.00;;;14.50;nan
9474;BME280;8865;47.636;7.692;2023-06-14T00:34:53;97638.66;;;14.48;nan
9474;BME280;8865;47.636;7.692;2023-06-14T00:37:20;97643.63;;;14.43;nan
9474;BME280;8865;47.636;7.692;2023-06-14T00:39:46;97645.63;;;14.41;nan
9474;BME280;8865;47.636;7.692;2023-06-14T00:42:23;97644.66;;;14.34;nan
9474;BME280;8865;47.636;7.692;2023-06-14T00:44:49;97646.31;;;14.35;nan
9474;BME280;8865;47.636;7.692;2023-06-14T00:47:15;97641.72;;;14.28;nan
9474;BME280;8865;47.636;7.692;2023-06-14T00:49:41;97647.31;;;14.25;nan
9474;BME280;8865;47.636;7.692;2023-06-14T00:52:08;97644.03;;;14.23;nan
9474;BME280;8865;47.636;7.692;2023-06-14T00:54:39;97643.72;;;14.18;nan
9474;BME280;8865;47.636;7.692;2023-06-14T00:57:05;97651.63;;;14.18;nan
9474;BME280;8865;47.636;7.692;2023-06-14T00:59:32;97652.31;;;14.12;nan
9474;BME280;8865;47.636;7.692;2023-06-14T01:01:58;97647.38;;;14.09;nan
9474;BME280;8865;47.636;7.692;2023-06-14T01:04:24;97643.44;;;14.05;nan
9474;BME280;8865;47.636;7.692;2023-06-14T01:07:12;97650.53;;;14.04;nan
9474;BME280;8865;47.636;7.692;2023-06-14T01:12:26;97653.03;;;13.98;nan
9474;BME280;8865;47.636;7.692;2023-06-14T01:14:55;97655.66;;;13.98;nan
9474;BME280;8865;47.636;7.692;2023-06-14T01:17:22;97653.84;;;13.90;nan
9474;BME280;8865;47.636;7.692;2023-06-14T01:19:51;97650.88;;;13.85;nan
9474;BME280;8865;47.636;7.692;2023-06-14T01:22:26;97651.91;;;13.84;nan
9474;BME280;8865;47.636;7.692;2023-06-14T01:24:52;97654.19;;;13.79;nan
9474;BME280;8865;47.636;7.692;2023-06-14T01:27:24;97655.53;;;13.74;nan
9474;BME280;8865;47.636;7.692;2023-06-14T01:29:55;97657.50;;;13.72;nan
9474;BME280;8865;47.636;7.692;2023-06-14T01:32:26;97654.72;;;13.66;nan
9474;BME280;8865;47.636;7.692;2023-06-14T01:34:52;97651.91;;;13.59;nan
9474;BME280;8865;47.636;7.692;2023-06-14T01:37:20;97653.09;;;13.56;nan
9474;BME280;8865;47.636;7.692;2023-06-14T01:39:48;97654.41;;;13.52;nan
9474;BME280;8865;47.636;7.692;2023-06-14T01:42:15;97651.28;;;13.49;nan
9474;BME280;8865;47.636;7.692;2023-06-14T01:44:42;97654.41;;;13.44;nan
9474;BME280;8865;47.636;7.692;2023-06-14T01:47:10;97651.94;;;13.43;nan
9474;BME280;8865;47.636;7.692;2023-06-14T01:49:38;97654.06;;;13.39;nan
9474;BME280;8865;47.636;7.692;2023-06-14T01:52:05;97647.81;;;13.32;nan
9474;BME280;8865;47.636;7.692;2023-06-14T01:54:32;97650.09;;;13.27;nan
9474;BME280;8865;47.636;7.692;2023-06-14T01:56:58;97647.47;;;13.18;nan
9474;BME280;8865;47.636;7.692;2023-06-14T01:59:24;97643.84;;;13.11;nan
9474;BME280;8865;47.636;7.692;2023-06-14T02:01:50;97643.53;;;13.06;nan
9474;BME280;8865;47.636;7.692;2023-06-14T02:04:16;97647.13;;;12.97;nan
9474;BME280;8865;47.636;7.692;2023-06-14T02:06:42;97645.31;;;12.89;nan
9474;BME280;8865;47.636;7.692;2023-06-14T02:09:08;97647.44;;;12.85;nan
9474;BME280;8865;47.636;7.692;2023-06-14T02:11:34;97652.34;;;12.80;nan
9474;BME280;8865;47.636;7.692;2023-06-14T02:14:00;97648.75;;;12.81;nan
9474;BME280;8865;47.636;7.692;2023-06-14T02:16:27;97656.31;;;12.76;nan
9474;BME280;8865;47.636;7.692;2023-06-14T02:18:56;97659.09;;;12.75;nan
9474;BME280;8865;47.636;7.692;2023-06-14T02:21:22;97666.28;;;12.73;nan
9474;BME280;8865;47.636;7.692;2023-06-14T02:23:49;97658.56;;;12.71;nan
9474;BME280;8865;47.636;7.692;2023-06-14T02:26:15;97663.81;;;12.63;nan
9474;BME280;8865;47.636;7.692;2023-06-14T02:28:41;97663.13;;;12.61;nan
9474;BME280;8865;47.636;7.692;2023-06-14T02:31:07;97665.59;;;12.62;nan
9474;BME280;8865;47.636;7.692;2023-06-14T02:33:33;97667.56;;;12.60;nan
9474;BME280;8865;47.636;7.692;2023-06-14T02:36:01;97663.59;;;12.56;nan
9474;BME280;8865;47.636;7.692;2023-06-14T02:38:28;97666.06;;;12.49;nan
9474;BME280;8865;47.636;7.692;2023-06-14T02:40:54;97663.59;;;12.48;nan
9474;BME280;8865;47.636;7.692;2023-06-14T02:43:20;97663.25;;;12.43;nan
9474;BME280;8865;47.636;7.692;2023-06-14T02:45:46;97672.09;;;12.42;nan
9474;BME280;8865;47.636;7.692;2023-06-14T02:48:13;97670.63;;;12.39;nan
9474;BME280;8865;47.636;7.692;2023-06-14T02:50:39;97673.88;;;12.33;nan
9474;BME280;8865;47.636;7.692;2023-06-14T02:53:05;97672.72;;;12.27;nan
9474;BME280;8865;47.636;7.692;2023-06-14T02:55:32;97670.56;;;12.23;nan
9474;BME280;8865;47.636;7.692;2023-06-14T02:57:58;97673.34;;;12.21;nan
9474;BME280;8865;47.636;7.692;2023-06-14T03:00:24;97669.72;;;12.22;nan
9474;BME280;8865;47.636;7.692;2023-06-14T03:02:51;97684.66;;;12.22;nan
9474;BME280;8865;47.636;7.692;2023-06-14T03:05:17;97683.31;;;12.18;nan
9474;BME280;8865;47.636;7.692;2023-06-14T03:07:46;97683.94;;;12.11;nan
9474;BME280;8865;47.636;7.692;2023-06-14T03:10:13;97685.91;;;12.09;nan
9474;BME280;8865;47.636;7.692;2023-06-14T03:12:40;97688.84;;;12.06;nan
9474;BME280;8865;47.636;7.692;2023-06-14T03:15:06;97688.50;;;12.01;nan
9474;BME280;8865;47.636;7.692;2023-06-14T03:17:33;97684.38;;;11.99;nan
9474;BME280;8865;47.636;7.692;2023-06-14T03:20:01;97690.69;;;11.88;nan
9474;BME280;8865;47.636;7.692;2023-06-14T03:22:27;97692.78;;;11.84;nan
9474;BME280;8865;47.636;7.692;2023-06-14T03:24:54;97693.91;;;11.82;nan
9474;BME280;8865;47.636;7.692;2023-06-14T03:27:21;97700.81;;;11.83;nan
9474;BME280;8865;47.636;7.692;2023-06-14T03:29:47;97702.75;;;11.80;nan
9474;BME280;8865;47.636;7.692;2023-06-14T03:32:13;97709.16;;;11.78;nan
9474;BME280;8865;47.636;7.692;2023-06-14T03:34:39;97714.25;;;11.79;nan
9474;BME280;8865;47.636;7.692;2023-06-14T03:37:05;97721.44;;;11.77;nan
9474;BME280;8865;47.636;7.692;2023-06-14T03:39:31;97717.34;;;11.75;nan
9474;BME280;8865;47.636;7.692;2023-06-14T03:41:57;97720.78;;;11.75;nan
9474;BME280;8865;47.636;7.692;2023-06-14T03:44:24;97726.81;;;11.76;nan
9474;BME280;8865;47.636;7.692;2023-06-14T03:46:52;97727.28;;;11.71;nan
9474;BME280;8865;47.636;7.692;2023-06-14T03:49:18;97723.03;;;11.70;nan
9474;BME280;8865;47.636;7.692;2023-06-14T03:51:44;97723.34;;;11.67;nan
9474;BME280;8865;47.636;7.692;2023-06-14T03:54:16;97728.06;;;11.64;nan
9474;BME280;8865;47.636;7.692;2023-06-14T03:56:42;97729.84;;;11.63;nan
9474;BME280;8865;47.636;7.692;2023-06-14T03:59:08;97724.22;;;11.58;nan
9474;BME280;8865;47.636;7.692;2023-06-14T04:01:34;97727.38;;;11.61;nan
9474;BME280;8865;47.636;7.692;2023-06-14T04:04:00;97730.38;;;11.67;nan
9474;BME280;8865;47.636;7.692;2023-06-14T04:06:26;97732.53;;;11.71;nan
9474;BME280;8865;47.636;7.692;2023-06-14T04:08:59;97728.44;;;11.69;nan
9474;BME280;8865;47.636;7.692;2023-06-14T04:11:30;97740.09;;;11.74;nan
9474;BME280;8865;47.636;7.692;2023-06-14T04:13:56;97744.03;;;11.70;nan
9474;BME280;8865;47.636;7.692;2023-06-14T04:16:23;97744.38;;;11.75;nan
9474;BME280;8865;47.636;7.692;2023-06-14T04:18:49;97755.53;;;11.77;nan
9474;BME280;8865;47.636;7.692;2023-06-14T04:21:18;97753.06;;;11.76;nan
9474;BME280;8865;47.636;7.692;2023-06-14T04:23:44;97755.03;;;11.74;nan
9474;BME280;8865;47.636;7.692;2023-06-14T04:26:11;97760.78;;;11.77;nan
9474;BME280;8865;47.636;7.692;2023-06-14T04:28:37;97758.69;;;11.81;nan
9474;BME280;8865;47.636;7.692;2023-06-14T04:31:07;97757.84;;;11.80;nan
9474;BME280;8865;47.636;7.692;2023-06-14T04:33:35;97757.84;;;11.80;nan
9474;BME280;8865;47.636;7.692;2023-06-14T04:36:11;97754.47;;;11.88;nan
9474;BME280;8865;47.636;7.692;2023-06-14T04:38:39;97755.25;;;11.99;nan
9474;BME280;8865;47.636;7.692;2023-06-14T04:41:05;97758.59;;;12.09;nan
9474;BME280;8865;47.636;7.692;2023-06-14T04:43:31;97759.75;;;12.14;nan
9474;BME280;8865;47.636;7.692;2023-06-14T04:46:07;97757.03;;;12.24;nan
9474;BME280;8865;47.636;7.692;2023-06-14T04:48:37;97762.84;;;12.36;nan
9474;BME280;8865;47.636;7.692;2023-06-14T04:51:05;97766.66;;;12.42;nan
9474;BME280;8865;47.636;7.692;2023-06-14T04:53:31;97764.59;;;12.54;nan
9474;BME280;8865;47.636;7.692;2023-06-14T04:55:57;97772.66;;;12.60;nan
9474;BME280;8865;47.636;7.692;2023-06-14T04:58:23;97768.75;;;12.64;nan
9474;BME280;8865;47.636;7.692;2023-06-14T05:00:49;97774.19;;;12.71;nan
9474;BME280;8865;47.636;7.692;2023-06-14T05:03:15;97776.38;;;12.84;nan
9474;BME280;8865;47.636;7.692;2023-06-14T05:05:44;97778.06;;;12.93;nan
9474;BME280;8865;47.636;7.692;2023-06-14T05:08:10;97765.59;;;13.03;nan
9474;BME280;8865;47.636;7.692;2023-06-14T05:10:36;97779.44;;;13.14;nan
9474;BME280;8865;47.636;7.692;2023-06-14T05:13:02;97774.19;;;13.22;nan
9474;BME280;8865;47.636;7.692;2023-06-14T05:16:57;97777.03;;;13.37;100.00
9474;BME280;8865;47.636;7.692;2023-06-14T05:19:23;97779.69;;;13.45;100.00
9474;BME280;8865;47.636;7.692;2023-06-14T05:21:49;97777.72;;;13.55;100.00
9474;BME280;8865;47.636;7.692;2023-06-14T05:24:15;97773.94;;;13.66;100.00
9474;BME280;8865;47.636;7.692;2023-06-14T05:26:43;97774.63;;;13.77;100.00
9474;BME280;8865;47.636;7.692;2023-06-14T05:29:09;97775.44;;;13.85;100.00
9474;BME280;8865;47.636;7.692;2023-06-14T05:31:35;97776.75;;;13.89;100.00
9474;BME280;8865;47.636;7.692;2023-06-14T05:34:01;97774.13;;;13.98;100.00
9474;BME280;8865;47.636;7.692;2023-06-14T05:36:27;97774.75;;;14.08;100.00
9474;BME280;8865;47.636;7.692;2023-06-14T05:38:54;97778.03;;;14.18;100.00
9474;BME280;8865;47.636;7.692;2023-06-14T05:41:28;97786.59;;;14.28;100.00
9474;BME280;8865;47.636;7.692;2023-06-14T05:43:55;97782.63;;;14.41;100.00
9474;BME280;8865;47.636;7.692;2023-06-14T05:46:22;97787.84;;;14.49;100.00
9474;BME280;8865;47.636;7.692;2023-06-14T05:48:51;97785.22;;;14.66;100.00
9474;BME280;8865;47.636;7.692;2023-06-14T05:51:17;97779.09;;;14.73;100.00
9474;BME280;8865;47.636;7.692;2023-06-14T05:53:47;97791.06;;;14.84;100.00
9474;BME280;8865;47.636;7.692;2023-06-14T05:56:14;97789.72;;;14.96;100.00
9474;BME280;8865;47.636;7.692;2023-06-14T05:58:41;97789.97;;;15.10;100.00
9474;BME280;8865;47.636;7.692;2023-06-14T06:01:07;97782.47;;;15.22;100.00
9474;BME280;8865;47.636;7.692;2023-06-14T06:03:33;97781.25;;;15.32;100.00
9474;BME280;8865;47.636;7.692;2023-06-14T06:05:59;97783.16;;;15.47;100.00
9474;BME280;8865;47.636;7.692;2023-06-14T06:08:28;97784.59;;;15.58;100.00
9474;BME280;8865;47.636;7.692;2023-06-14T06:10:56;97781.34;;;15.70;100.00
9474;BME280;8865;47.636;7.692;2023-06-14T06:13:22;97787.41;;;15.79;100.00
9474;BME280;8865;47.636;7.692;2023-06-14T06:15:48;97787.66;;;15.93;100.00
9474;BME280;8865;47.636;7.692;2023-06-14T06:18:14;97796.97;;;16.03;99.64
9474;BME280;8865;47.636;7.692;2023-06-14T06:20:41;97787.97;;;16.13;95.96
9474;BME280;8865;47.636;7.692;2023-06-14T06:23:07;97786.19;;;16.28;86.58
9474;BME280;8865;47.636;7.692;2023-06-14T06:25:35;97791.00;;;16.39;87.51
9474;BME280;8865;47.636;7.692;2023-06-14T06:28:01;97798.22;;;16.46;76.54
9474;BME280;8865;47.636;7.692;2023-06-14T06:30:27;97805.31;;;16.60;74.77
9474;BME280;8865;47.636;7.692;2023-06-14T06:32:53;97801.69;;;16.76;74.39
9474;BME280;8865;47.636;7.692;2023-06-14T06:35:19;97796.03;;;16.79;73.54
9474;BME280;8865;47.636;7.692;2023-06-14T06:37:45;97808.09;;;16.96;72.49
9474;BME280;8865;47.636;7.692;2023-06-14T06:40:11;97802.41;;;17.14;74.90
9474;BME280;8865;47.636;7.692;2023-06-14T06:42:38;97806.84;;;17.29;72.38
9474;BME280;8865;47.636;7.692;2023-06-14T06:45:04;97805.16;;;17.43;70.01
9474;BME280;8865;47.636;7.692;2023-06-14T06:47:30;97814.75;;;17.44;65.18
9474;BME280;8865;47.636;7.692;2023-06-14T06:49:56;97810.22;;;17.59;62.84
9474;BME280;8865;47.636;7.692;2023-06-14T06:52:23;97807.38;;;17.61;61.61
9474;BME280;8865;47.636;7.692;2023-06-14T06:54:48;97814.06;;;17.78;60.67
9474;BME280;8865;47.636;7.692;2023-06-14T06:57:16;97813.31;;;17.84;62.17
9474;BME280;8865;47.636;7.692;2023-06-14T06:59:42;97818.00;;;18.04;62.70
9474;BME280;8865;47.636;7.692;2023-06-14T07:02:08;97814.78;;;18.09;60.79
9474;BME280;8865;47.636;7.692;2023-06-14T07:04:34;97818.13;;;18.17;61.07
9474;BME280;8865;47.636;7.692;2023-06-14T07:07:00;97819.63;;;18.27;62.17
9474;BME280;8865;47.636;7.692;2023-06-14T07:09:26;97809.69;;;18.35;62.08
9474;BME280;8865;47.636;7.692;2023-06-14T07:11:52;97814.94;;;18.57;61.99
9474;BME280;8865;47.636;7.692;2023-06-14T07:14:18;97817.03;;;18.68;62.59
9474;BME280;8865;47.636;7.692;2023-06-14T07:16:44;97818.19;;;18.52;59.00
9474;BME280;8865;47.636;7.692;2023-06-14T07:19:10;97816.69;;;18.78;56.80
9474;BME280;8865;47.636;7.692;2023-06-14T07:21:36;97815.13;;;18.90;57.37
9474;BME280;8865;47.636;7.692;2023-06-14T07:24:06;97822.78;;;19.07;57.77
9474;BME280;8865;47.636;7.692;2023-06-14T07:26:35;97815.47;;;19.09;56.71
9474;BME280;8865;47.636;7.692;2023-06-14T07:29:01;97825.63;;;19.05;56.17
9474;BME280;8865;47.636;7.692;2023-06-14T07:31:28;97822.25;;;19.32;59.02
9474;BME280;8865;47.636;7.692;2023-06-14T07:33:54;97813.34;;;19.46;62.54
9474;BME280;8865;47.636;7.692;2023-06-14T07:36:20;97816.41;;;19.56;60.22
9474;BME280;8865;47.636;7.692;2023-06-14T07:38:46;97812.34;;;19.60;59.85
9474;BME280;8865;47.636;7.692;2023-06-14T07:41:12;97821.31;;;19.59;55.41
9474;BME280;8865;47.636;7.692;2023-06-14T07:43:38;97823.56;;;19.49;54.23
9474;BME280;8865;47.636;7.692;2023-06-14T07:46:04;97825.03;;;19.72;55.47
9474;BME280;8865;47.636;7.692;2023-06-14T07:48:30;97821.81;;;19.83;56.47
9474;BME280;8865;47.636;7.692;2023-06-14T07:50:56;97812.84;;;20.04;59.58
9474;BME280;8865;47.636;7.692;2023-06-14T07:53:22;97820.00;;;20.30;58.20
9474;BME280;8865;47.636;7.692;2023-06-14T07:55:48;97819.16;;;20.43;58.57
9474;BME280;8865;47.636;7.692;2023-06-14T07:58:15;97816.28;;;20.51;56.72
9474;BME280;8865;47.636;7.692;2023-06-14T08:00:41;97816.09;;;20.60;54.62
9474;BME280;8865;47.636;7.692;2023-06-14T08:03:07;97817.53;;;20.69;54.61
9474;BME280;8865;47.636;7.692;2023-06-14T08:05:33;97809.50;;;20.62;52.75
9474;BME280;8865;47.636;7.692;2023-06-14T08:08:00;97813.19;;;20.81;54.17
9474;BME280;8865;47.636;7.692;2023-06-14T08:10:26;97812.28;;;21.01;56.47
9474;BME280;8865;47.636;7.692;2023-06-14T08:12:52;97807.75;;;21.15;58.06
9474;BME280;8865;47.636;7.692;2023-06-14T08:15:18;97814.31;;;21.05;54.27
9474;BME280;8865;47.636;7.692;2023-06-14T08:17:44;97803.03;;;21.17;54.60
9474;BME280;8865;47.636;7.692;2023-06-14T08:20:11;97810.13;;;21.30;55.81
9474;BME280;8865;47.636;7.692;2023-06-14T08:22:38;97811.88;;;21.56;58.42
9474;BME280;8865;47.636;7.692;2023-06-14T08:25:05;97816.31;;;21.69;54.64
9474;BME280;8865;47.636;7.692;2023-06-14T08:27:32;97812.75;;;21.82;54.74
9474;BME280;8865;47.636;7.692;2023-06-14T08:29:58;97822.13;;;21.91;56.40
9474;BME280;8865;47.636;7.692;2023-06-14T08:32:24;97820.44;;;21.97;57.71
9474;BME280;8865;47.636;7.692;2023-06-14T08:34:50;97820.31;;;22.10;55.80
9474;BME280;8865;47.636;7.692;2023-06-14T08:37:16;97819.63;;;22.21;55.71
9474;BME280;8865;47.636;7.692;2023-06-14T08:39:42;97826.25;;;22.44;54.94
9474;BME280;8865;47.636;7.692;2023-06-14T08:42:09;97826.50;;;22.61;54.12
9474;BME280;8865;47.636;7.692;2023-06-14T08:44:36;97820.06;;;22.69;55.60
9474;BME280;8865;47.636;7.692;2023-06-14T08:47:02;97819.41;;;22.92;56.32
9474;BME280;8865;47.636;7.692;2023-06-14T08:49:32;97827.09;;;23.00;54.61
9474;BME280;8865;47.636;7.692;2023-06-14T08:52:00;97824.66;;;23.17;52.20
9474;BME280;8865;47.636;7.692;2023-06-14T08:54:29;97821.19;;;23.16;50.86
9474;BME280;8865;47.636;7.692;2023-06-14T08:56:57;97821.84;;;23.30;52.82
9474;BME280;8865;47.636;7.692;2023-06-14T08:59:26;97819.22;;;23.42;53.54
9474;BME280;8865;47.636;7.692;2023-06-14T09:01:53;97821.72;;;23.56;54.86
9474;BME280;8865;47.636;7.692;2023-06-14T09:04:23;97823.38;;;23.87;52.03
9474;BME280;8865;47.636;7.692;2023-06-14T09:06:56;97825.34;;;23.92;54.28
9474;BME280;8865;47.636;7.692;2023-06-14T09:09:22;97822.91;;;24.02;52.27
9474;BME280;8865;47.636;7.692;2023-06-14T09:11:51;97817.59;;;24.14;50.96
9474;BME280;8865;47.636;7.692;2023-06-14T09:14:24;97823.41;;;24.22;51.91
9474;BME280;8865;47.636;7.692;2023-06-14T09:16:56;97814.13;;;24.49;54.34
9474;BME280;8865;47.636;7.692;2023-06-14T09:19:25;97816.72;;;24.67;51.50
9474;BME280;8865;47.636;7.692;2023-06-14T09:21:52;97826.72;;;24.84;53.10
9474;BME280;8865;47.636;7.692;2023-06-14T09:24:19;97822.94;;;24.96;49.14
9474;BME280;8865;47.636;7.692;2023-06-14T09:26:48;97824.84;;;25.25;52.88
9474;BME280;8865;47.636;7.692;2023-06-14T09:29:17;97827.66;;;25.42;50.76
9474;BME280;8865;47.636;7.692;2023-06-14T09:31:46;97826.31;;;25.73;50.30
9474;BME280;8865;47.636;7.692;2023-06-14T09:34:12;97822.69;;;25.96;48.45
9474;BME280;8865;47.636;7.692;2023-06-14T09:36:39;97821.69;;;26.14;48.32
9474;BME280;8865;47.636;7.692;2023-06-14T09:39:05;97822.91;;;26.41;48.94
9474;BME280;8865;47.636;7.692;2023-06-14T09:41:35;97832.63;;;26.64;44.67
9474;BME280;8865;47.636;7.692;2023-06-14T09:44:03;97827.56;;;26.84;44.09
9474;BME280;8865;47.636;7.692;2023-06-14T09:46:30;97825.75;;;26.90;40.73
9474;BME280;8865;47.636;7.692;2023-06-14T09:48:57;97831.44;;;26.94;42.65
9474;BME280;8865;47.636;7.692;2023-06-14T09:51:24;97820.59;;;27.05;40.74
9474;BME280;8865;47.636;7.692;2023-06-14T09:53:51;97818.72;;;27.28;42.36
9474;BME280;8865;47.636;7.692;2023-06-14T09:56:32;97821.97;;;27.52;41.28
9474;BME280;8865;47.636;7.692;2023-06-14T10:01:30;97813.53;;;27.98;39.17
9474;BME280;8865;47.636;7.692;2023-06-14T10:04:04;97816.66;;;28.17;37.84
9474;BME280;8865;47.636;7.692;2023-06-14T10:06:32;97804.69;;;28.40;37.75
9474;BME280;8865;47.636;7.692;2023-06-14T10:09:03;97803.78;;;28.62;37.66
9474;BME280;8865;47.636;7.692;2023-06-14T10:11:30;97808.78;;;28.91;36.19
9474;BME280;8865;47.636;7.692;2023-06-14T10:13:57;97806.41;;;29.04;34.90
9474;BME280;8865;47.636;7.692;2023-06-14T10:21:46;97793.44;;;29.90;34.38
9474;BME280;8865;47.636;7.692;2023-06-14T10:24:19;97797.19;;;30.20;33.13
9474;BME280;8865;47.636;7.692;2023-06-14T10:26:53;97798.53;;;30.33;32.22
9474;BME280;8865;47.636;7.692;2023-06-14T10:29:19;97791.72;;;30.67;31.51
9474;BME280;8865;47.636;7.692;2023-06-14T10:31:50;97779.44;;;31.05;32.35
9474;BME280;8865;47.636;7.692;2023-06-14T10:34:29;97770.59;;;31.44;30.37
9474;BME280;8865;47.636;7.692;2023-06-14T10:39:29;97780.75;;;32.61;29.85
9474;BME280;8865;47.636;7.692;2023-06-14T10:41:57;97786.38;;;33.75;28.56
9474;BME280;8865;47.636;7.692;2023-06-14T10:46:52;97773.56;;;35.39;24.64
9474;BME280;8865;47.636;7.692;2023-06-14T10:49:19;97771.97;;;36.28;24.63
9474;BME280;8865;47.636;7.692;2023-06-14T10:51:49;97777.28;;;37.31;22.85
9474;BME280;8865;47.636;7.692;2023-06-14T10:54:16;97774.28;;;38.41;21.42
9474;BME280;8865;47.636;7.692;2023-06-14T10:56:50;97771.97;;;39.42;20.07
9474;BME280;8865;47.636;7.692;2023-06-14T10:59:18;97774.72;;;40.42;20.05
9474;BME280;8865;47.636;7.692;2023-06-14T11:04:12;97755.47;;;41.41;17.07
9474;BME280;8865;47.636;7.692;2023-06-14T11:06:49;97755.78;;;41.80;17.49
9474;BME280;8865;47.636;7.692;2023-06-14T11:12:09;97754.00;;;42.32;16.22
9474;BME280;8865;47.636;7.692;2023-06-14T11:14:36;97754.78;;;42.64;16.07
9474;BME280;8865;47.636;7.692;2023-06-14T11:17:02;97759.59;;;42.68;15.78
9474;BME280;8865;47.636;7.692;2023-06-14T11:19:28;97754.44;;;42.34;16.43
9474;BME280;8865;47.636;7.692;2023-06-14T11:21:55;97747.06;;;42.38;16.50
9474;BME280;8865;47.636;7.692;2023-06-14T11:24:21;97738.69;;;42.82;15.81
9474;BME280;8865;47.636;7.692;2023-06-14T11:26:47;97747.09;;;43.06;16.88
9474;BME280;8865;47.636;7.692;2023-06-14T11:29:15;97741.69;;;42.93;15.41
9474;BME280;8865;47.636;7.692;2023-06-14T11:31:44;97740.97;;;42.96;15.99
9474;BME280;8865;47.636;7.692;2023-06-14T11:34:13;97736.66;;;43.15;16.25
9474;BME280;8865;47.636;7.692;2023-06-14T11:36:39;97728.84;;;43.56;14.94
9474;BME280;8865;47.636;7.692;2023-06-14T11:39:07;97733.09;;;43.34;14.46
9474;BME280;8865;47.636;7.692;2023-06-14T11:44:01;97730.56;;;43.25;14.88
9474;BME280;8865;47.636;7.692;2023-06-14T11:46:28;97726.84;;;43.37;14.88
9474;BME280;8865;47.636;7.692;2023-06-14T11:48:54;97725.19;;;43.32;15.27
9474;BME280;8865;47.636;7.692;2023-06-14T11:51:20;97716.56;;;43.53;14.90
9474;BME280;8865;47.636;7.692;2023-06-14T11:53:46;97727.50;;;43.69;14.46
9474;BME280;8865;47.636;7.692;2023-06-14T11:56:13;97717.09;;;43.59;14.97
9474;BME280;8865;47.636;7.692;2023-06-14T11:58:39;97719.91;;;43.63;14.64
9474;BME280;8865;47.636;7.692;2023-06-14T12:01:08;97722.41;;;42.93;15.50
9474;BME280;8865;47.636;7.692;2023-06-14T12:03:34;97720.13;;;42.79;14.62
9474;BME280;8865;47.636;7.692;2023-06-14T12:06:08;97719.44;;;42.51;15.12
9474;BME280;8865;47.636;7.692;2023-06-14T12:08:35;97707.72;;;42.54;14.30
9474;BME280;8865;47.636;7.692;2023-06-14T12:11:12;97708.97;;;42.56;15.07
9474;BME280;8865;47.636;7.692;2023-06-14T12:13:40;97713.22;;;42.06;15.01
9474;BME280;8865;47.636;7.692;2023-06-14T12:16:11;97703.47;;;42.24;15.63
9474;BME280;8865;47.636;7.692;2023-06-14T12:18:38;97709.22;;;42.51;16.13
9474;BME280;8865;47.636;7.692;2023-06-14T12:21:06;97699.09;;;42.07;14.07
9474;BME280;8865;47.636;7.692;2023-06-14T12:23:48;97705.88;;;42.26;15.69
9474;BME280;8865;47.636;7.692;2023-06-14T12:26:19;97695.19;;;42.56;16.04
9474;BME280;8865;47.636;7.692;2023-06-14T12:28:46;97697.72;;;42.81;15.80
9474;BME280;8865;47.636;7.692;2023-06-14T12:31:14;97696.50;;;42.98;15.35
9474;BME280;8865;47.636;7.692;2023-06-14T12:33:40;97693.44;;;42.83;14.84
9474;BME280;8865;47.636;7.692;2023-06-14T12:36:07;97689.22;;;43.06;15.81
9474;BME280;8865;47.636;7.692;2023-06-14T12:38:34;97681.09;;;42.26;15.13
9474;BME280;8865;47.636;7.692;2023-06-14T12:41:00;97688.06;;;40.66;15.18
9474;BME280;8865;47.636;7.692;2023-06-14T12:43:27;97684.25;;;41.80;16.04
9474;BME280;8865;47.636;7.692;2023-06-14T12:45:53;97681.03;;;42.22;15.34
9474;BME280;8865;47.636;7.692;2023-06-14T12:48:19;97673.28;;;42.44;15.60
9474;BME280;8865;47.636;7.692;2023-06-14T12:50:46;97673.78;;;42.66;15.91
9474;BME280;8865;47.636;7.692;2023-06-14T12:53:12;97680.38;;;42.61;14.47
9474;BME280;8865;47.636;7.692;2023-06-14T12:55:38;97689.16;;;42.51;15.73
9474;BME280;8865;47.636;7.692;2023-06-14T12:58:05;97687.19;;;42.51;15.88
9474;BME280;8865;47.636;7.692;2023-06-14T13:00:31;97680.81;;;42.63;16.51
9474;BME280;8865;47.636;7.692;2023-06-14T13:02:57;97684.91;;;42.37;15.93
9474;BME280;8865;47.636;7.692;2023-06-14T13:05:23;97685.00;;;41.65;14.85
9474;BME280;8865;47.636;7.692;2023-06-14T13:07:50;97692.03;;;40.93;15.90
9474;BME280;8865;47.636;7.692;2023-06-14T13:10:17;97691.50;;;40.38;16.26
9474;BME280;8865;47.636;7.692;2023-06-14T13:12:43;97688.84;;;40.29;17.43
9474;BME280;8865;47.636;7.692;2023-06-14T13:15:09;97692.31;;;39.05;16.65
9474;BME280;8865;47.636;7.692;2023-06-14T13:17:36;97692.22;;;38.63;18.95
9474;BME280;8865;47.636;7.692;2023-06-14T13:20:06;97686.66;;;38.12;18.06
9474;BME280;8865;47.636;7.692;2023-06-14T13:22:33;97676.94;;;38.32;18.97
9474;BME280;8865;47.636;7.692;2023-06-14T13:24:59;97681.28;;;37.94;18.65
9474;BME280;8865;47.636;7.692;2023-06-14T13:27:26;97683.38;;;37.80;20.46
9474;BME280;8865;47.636;7.692;2023-06-14T13:29:52;97683.06;;;37.90;19.15
9474;BME280;8865;47.636;7.692;2023-06-14T13:32:21;97677.16;;;37.70;19.59
9474;BME280;8865;47.636;7.692;2023-06-14T13:34:47;97686.97;;;37.37;19.37
9474;BME280;8865;47.636;7.692;2023-06-14T13:37:14;97681.19;;;37.38;19.33
9474;BME280;8865;47.636;7.692;2023-06-14T13:39:40;97678.00;;;37.27;20.61
9474;BME280;8865;47.636;7.692;2023-06-14T13:42:06;97679.25;;;37.04;20.55
9474;BME280;8865;47.636;7.692;2023-06-14T13:44:32;97678.78;;;37.02;21.15
9474;BME280;8865;47.636;7.692;2023-06-14T13:46:59;97675.72;;;36.94;20.14
9474;BME280;8865;47.636;7.692;2023-06-14T13:49:25;97678.94;;;36.96;21.76
9474;BME280;8865;47.636;7.692;2023-06-14T13:51:52;97671.06;;;36.77;19.95
9474;BME280;8865;47.636;7.692;2023-06-14T13:54:19;97681.09;;;36.59;21.33